Cape Canaveral AFS Skid Strip Cocoa Beach US
ICAO: KXMR
IATA: XMR
Category: Medium
Scheduled Services: No

Elevation: 10 ft
TransAlt. 18000 ft.

Airport Communications:
ORLANDO APP/DEP:134.95
PMSV METRO:344.6
CAPE TWR:118.625
:239.05

KXMR Zoom In..

If you have problems with the map follow the link
https://www.worldairports.se/pages/airport.php?
ICAO=KXMR

Runways:

(A) RW 13 length 10000 ft width 200 ft
---- / hdg 131

(B) RW 31 length 10000 ft width 200 ft
---- / hdg 311

Location; KXMR
Day. 19 / Time. 02.56 Zulu
* Altimeter: 30.22
* Temperature: 21° c. 69.8°f.
* Wind from: 170° Speed 09 kn.
Dewpoint: 16° c.
Visibility: 10 Statute Miles.
Clouds: Clear (automated report).

KXMR 190256Z AUTO 17009KT 10SM CLR 21/16 A3022 RMK AO2 SLP237 T02080156 55002 $


Wind From 170°
Speed 09 kn.

 
 
jpsmedia worldairports.se 2020   terms of use